createdAt,value
2018-08-20T00:01:37.782Z,20.90
2018-08-20T00:04:10.124Z,20.90
2018-08-20T00:06:51.344Z,20.90
2018-08-20T00:09:22.063Z,20.90
2018-08-20T00:11:51.006Z,20.80
2018-08-20T00:14:21.823Z,20.80
2018-08-20T00:16:50.678Z,20.80
2018-08-20T00:19:19.586Z,20.80
2018-08-20T00:21:48.437Z,20.70
2018-08-20T00:24:17.302Z,20.70
2018-08-20T00:26:46.127Z,20.70
2018-08-20T00:29:14.932Z,20.60
2018-08-20T00:31:43.723Z,20.60
2018-08-20T00:34:12.748Z,20.50
2018-08-20T00:36:41.793Z,20.50
2018-08-20T00:39:11.612Z,20.60
2018-08-20T00:41:40.457Z,20.60
2018-08-20T00:44:16.203Z,20.60
2018-08-20T00:46:45.926Z,20.50
2018-08-20T00:49:16.117Z,20.50
2018-08-20T00:51:45.420Z,20.40
2018-08-20T00:54:14.417Z,20.40
2018-08-20T00:56:43.346Z,20.30
2018-08-20T00:59:12.242Z,20.30
2018-08-20T01:01:41.292Z,20.20
2018-08-20T01:04:10.076Z,20.20
2018-08-20T01:06:38.921Z,20.10
2018-08-20T01:09:08.364Z,20.20
2018-08-20T01:11:37.434Z,20.20
2018-08-20T01:14:06.303Z,20.20
2018-08-20T01:16:35.200Z,20.20
2018-08-20T01:19:04.046Z,20.20
2018-08-20T01:21:33.015Z,20.20
2018-08-20T01:24:01.868Z,20.30
2018-08-20T01:26:30.669Z,20.30
2018-08-20T01:28:59.466Z,20.30
2018-08-20T01:31:28.474Z,20.30
2018-08-20T01:33:57.272Z,20.40
2018-08-20T01:36:26.133Z,20.30
2018-08-20T01:38:54.945Z,20.30
2018-08-20T01:41:24.688Z,20.30
2018-08-20T01:43:53.465Z,20.30
2018-08-20T01:46:22.303Z,20.30
2018-08-20T01:48:51.326Z,20.20
2018-08-20T01:51:20.343Z,20.20
2018-08-20T01:53:49.234Z,20.20
2018-08-20T01:56:18.124Z,20.20
2018-08-20T01:58:46.922Z,20.30
2018-08-20T02:01:15.725Z,20.30
2018-08-20T02:03:44.591Z,20.30
2018-08-20T02:06:13.443Z,20.30
2018-08-20T02:08:42.248Z,20.40
2018-08-20T02:11:11.332Z,20.40
2018-08-20T02:13:40.384Z,20.50
2018-08-20T02:16:10.195Z,20.60
2018-08-20T02:18:39.146Z,20.60
2018-08-20T02:21:08.058Z,20.70
2018-08-20T02:23:36.877Z,20.70
2018-08-20T02:26:05.773Z,20.80
2018-08-20T02:28:34.664Z,20.80
2018-08-20T02:31:03.437Z,20.80
2018-08-20T02:33:32.280Z,20.80
2018-08-20T02:36:01.013Z,20.80
2018-08-20T02:38:30.538Z,20.80
2018-08-20T02:40:59.505Z,20.90
2018-08-20T02:43:28.421Z,20.80
2018-08-20T02:45:57.256Z,20.80
2018-08-20T02:48:26.295Z,20.90
2018-08-20T02:50:55.290Z,20.80
2018-08-20T02:53:24.151Z,20.80
2018-08-20T02:55:52.964Z,20.80
2018-08-20T02:58:21.774Z,20.80
2018-08-20T03:00:50.704Z,20.80
2018-08-20T03:03:19.540Z,20.80
2018-08-20T03:05:48.412Z,20.80
2018-08-20T03:08:17.382Z,20.80
2018-08-20T03:10:46.144Z,20.70
2018-08-20T03:13:14.985Z,20.80
2018-08-20T03:15:43.788Z,20.80
2018-08-20T03:18:12.628Z,20.70
2018-08-20T03:20:41.553Z,20.70
2018-08-20T03:23:10.403Z,20.70
2018-08-20T03:25:39.186Z,20.60
2018-08-20T03:28:08.186Z,20.60
2018-08-20T03:30:37.115Z,20.60
2018-08-20T03:33:06.070Z,20.60
2018-08-20T03:35:35.103Z,20.50
2018-08-20T03:38:03.956Z,20.60
2018-08-20T03:40:32.832Z,20.50
2018-08-20T03:43:01.663Z,20.50
2018-08-20T03:45:30.415Z,20.50
2018-08-20T03:47:59.278Z,20.50
2018-08-20T03:50:28.089Z,20.50
2018-08-20T03:52:56.892Z,20.50
2018-08-20T03:55:28.657Z,20.50
2018-08-20T03:57:57.554Z,20.50
2018-08-20T04:00:26.369Z,20.50
2018-08-20T04:02:55.392Z,20.50
2018-08-20T04:05:27.165Z,20.50
2018-08-20T04:07:56.303Z,20.50
2018-08-20T04:10:25.275Z,20.50
2018-08-20T04:12:54.050Z,20.50
2018-08-20T04:15:22.854Z,20.50
2018-08-20T04:17:51.734Z,20.50
2018-08-20T04:20:21.557Z,20.50
2018-08-20T04:22:50.431Z,20.50
2018-08-20T04:25:19.225Z,20.50
2018-08-20T04:27:48.053Z,20.40
2018-08-20T04:30:16.909Z,20.40
2018-08-20T04:32:45.694Z,20.40
2018-08-20T04:35:14.525Z,20.50
2018-08-20T04:37:43.373Z,20.40
2018-08-20T04:40:12.243Z,20.40
2018-08-20T04:42:41.010Z,20.30
2018-08-20T04:45:10.238Z,20.30
2018-08-20T04:47:39.357Z,20.30
2018-08-20T04:50:10.424Z,20.30
2018-08-20T04:52:39.886Z,20.20
2018-08-20T04:55:08.968Z,20.20
2018-08-20T04:57:38.157Z,20.20
2018-08-20T05:00:08.916Z,20.20
2018-08-20T05:02:37.759Z,20.20
2018-08-20T05:05:06.653Z,20.20
2018-08-20T05:07:35.878Z,20.10
2018-08-20T05:10:05.053Z,20.10
2018-08-20T05:12:33.961Z,20.10
2018-08-20T05:15:02.765Z,20.10
2018-08-20T05:17:31.599Z,20.00
2018-08-20T05:20:00.515Z,20.00
2018-08-20T05:22:29.468Z,20.00
2018-08-20T05:24:58.374Z,20.10
2018-08-20T05:27:27.277Z,20.10
2018-08-20T05:29:56.157Z,20.10
2018-08-20T05:32:24.974Z,20.10
2018-08-20T05:34:54.159Z,20.10
2018-08-20T05:37:22.987Z,20.20
2018-08-20T05:39:51.973Z,20.20
2018-08-20T05:42:21.046Z,20.20
2018-08-20T05:44:49.949Z,20.30
2018-08-20T05:47:18.774Z,20.30
2018-08-20T05:49:47.803Z,20.30
2018-08-20T05:52:16.645Z,20.30
2018-08-20T05:54:45.506Z,20.30
2018-08-20T05:57:14.406Z,20.30
2018-08-20T05:59:43.309Z,20.30
2018-08-20T06:02:12.209Z,20.30
2018-08-20T06:04:41.034Z,20.20
2018-08-20T06:07:09.881Z,20.20
2018-08-20T06:09:38.873Z,20.20
2018-08-20T06:12:07.933Z,20.20
2018-08-20T06:14:36.715Z,20.10
2018-08-20T06:17:05.978Z,20.10
2018-08-20T06:19:35.136Z,20.10
2018-08-20T06:22:03.945Z,20.20
2018-08-20T06:24:33.089Z,20.20
2018-08-20T06:27:01.958Z,20.20
2018-08-20T06:29:31.119Z,20.30
2018-08-20T06:32:00.006Z,20.40
2018-08-20T06:34:28.854Z,20.50
2018-08-20T06:36:57.867Z,20.70
2018-08-20T06:39:26.781Z,20.80
2018-08-20T06:41:56.427Z,21.00
2018-08-20T06:44:25.407Z,21.10
2018-08-20T06:46:54.346Z,21.20
2018-08-20T06:49:23.319Z,21.40
2018-08-20T06:51:52.185Z,21.40
2018-08-20T06:54:21.048Z,21.50
2018-08-20T06:56:50.153Z,21.50
2018-08-20T06:59:19.015Z,21.60
2018-08-20T07:01:48.038Z,21.60
2018-08-20T07:04:17.048Z,21.70
2018-08-20T07:06:46.011Z,21.70
2018-08-20T07:09:14.957Z,21.70
2018-08-20T07:11:44.029Z,21.70
2018-08-20T07:14:12.980Z,21.80
2018-08-20T07:16:41.740Z,21.80
2018-08-20T07:19:10.744Z,21.80
2018-08-20T07:21:39.524Z,21.90
2018-08-20T07:24:08.714Z,21.80
2018-08-20T07:26:37.515Z,21.80
2018-08-20T07:29:06.273Z,21.90
2018-08-20T07:31:35.352Z,21.90
2018-08-20T07:34:04.181Z,22.10
2018-08-20T07:36:32.918Z,22.20
2018-08-20T07:39:01.651Z,22.20
2018-08-20T07:41:30.472Z,22.20
2018-08-20T07:43:59.268Z,22.30
2018-08-20T07:46:28.130Z,22.40
2018-08-20T07:49:03.643Z,22.40
2018-08-20T07:51:34.940Z,22.40
2018-08-20T07:54:04.129Z,22.40
2018-08-20T07:56:34.387Z,22.50
2018-08-20T07:59:03.488Z,22.60
2018-08-20T08:01:32.458Z,22.70
2018-08-20T08:04:01.545Z,22.90
2018-08-20T08:06:30.692Z,23.00
2018-08-20T08:08:59.851Z,23.00
2018-08-20T08:11:29.110Z,23.10
2018-08-20T08:13:58.127Z,23.00
2018-08-20T08:16:27.063Z,23.00
2018-08-20T08:18:56.039Z,23.00
2018-08-20T08:21:24.998Z,22.90
2018-08-20T08:23:54.012Z,22.80
2018-08-20T08:26:22.931Z,22.70
2018-08-20T08:28:53.694Z,22.70
2018-08-20T08:31:23.018Z,22.70
2018-08-20T08:33:52.090Z,22.70
2018-08-20T08:36:21.007Z,22.80
2018-08-20T08:38:50.628Z,22.80
2018-08-20T08:41:19.830Z,22.80
2018-08-20T08:43:49.494Z,22.90
2018-08-20T08:46:18.452Z,23.10
2018-08-20T08:48:47.396Z,23.20
2018-08-20T08:51:17.404Z,23.20
2018-08-20T08:53:46.278Z,23.20
2018-08-20T08:56:15.282Z,23.30
2018-08-20T08:58:45.196Z,23.30
2018-08-20T09:01:14.171Z,23.30
2018-08-20T09:03:43.241Z,23.30
2018-08-20T09:06:12.150Z,23.30
2018-08-20T09:08:41.068Z,23.40
2018-08-20T09:11:12.429Z,23.40
2018-08-20T09:13:43.974Z,23.40
2018-08-20T09:16:16.256Z,23.50
2018-08-20T09:18:45.500Z,23.70
2018-08-20T09:21:20.917Z,23.80
2018-08-20T09:23:50.074Z,23.70
2018-08-20T09:26:19.237Z,23.80
2018-08-20T09:28:54.851Z,23.90
2018-08-20T09:31:24.189Z,23.90
2018-08-20T09:33:53.108Z,24.00
2018-08-20T09:36:22.431Z,24.00
2018-08-20T09:38:52.119Z,24.10
2018-08-20T09:41:21.086Z,24.20
2018-08-20T09:43:50.164Z,24.30
2018-08-20T09:46:19.341Z,24.20
2018-08-20T09:48:48.174Z,24.20
2018-08-20T09:51:17.046Z,24.40
2018-08-20T09:53:46.436Z,24.60
2018-08-20T09:56:22.390Z,24.90
2018-08-20T09:58:51.293Z,24.90
2018-08-20T10:01:20.196Z,24.90
2018-08-20T10:03:48.974Z,24.90
2018-08-20T10:06:18.080Z,24.90
2018-08-20T10:08:47.114Z,25.00
2018-08-20T10:11:16.443Z,25.00
2018-08-20T10:13:45.631Z,24.80
2018-08-20T10:16:14.757Z,24.60
2018-08-20T10:18:43.538Z,24.50
2018-08-20T10:21:12.448Z,24.40
2018-08-20T10:23:41.206Z,24.20
2018-08-20T10:26:10.274Z,24.00
2018-08-20T10:28:39.030Z,23.80
2018-08-20T10:31:07.851Z,23.60
2018-08-20T10:33:36.638Z,23.50
2018-08-20T10:36:05.787Z,23.40
2018-08-20T10:38:34.788Z,23.30
2018-08-20T10:41:03.640Z,23.10
2018-08-20T10:43:32.556Z,23.00
2018-08-20T10:46:06.692Z,22.70
2018-08-20T10:48:35.451Z,22.60
2018-08-20T10:51:04.306Z,22.50
2018-08-20T10:53:33.038Z,22.50
2018-08-20T10:56:02.064Z,22.50
2018-08-20T10:58:31.032Z,22.60
2018-08-20T11:00:59.781Z,22.70
2018-08-20T11:03:28.567Z,22.90
2018-08-20T11:05:57.359Z,22.90
2018-08-20T11:08:26.431Z,23.00
2018-08-20T11:10:55.335Z,23.10
2018-08-20T11:13:24.366Z,23.20
2018-08-20T11:15:53.156Z,23.10
2018-08-20T11:18:22.152Z,23.20
2018-08-20T11:20:53.222Z,23.20
2018-08-20T11:23:22.218Z,23.30
2018-08-20T11:25:51.378Z,23.60
2018-08-20T11:28:21.245Z,23.70
2018-08-20T11:30:50.196Z,23.90
2018-08-20T11:33:19.142Z,24.00
2018-08-20T11:35:47.905Z,24.20
2018-08-20T11:38:16.740Z,24.20
2018-08-20T11:40:45.568Z,24.40
2018-08-20T11:43:14.497Z,24.50
2018-08-20T11:45:43.276Z,24.60
2018-08-20T11:48:12.516Z,24.60
2018-08-20T11:50:41.656Z,24.50
2018-08-20T11:53:10.646Z,24.60
2018-08-20T11:55:39.490Z,24.50
2018-08-20T11:58:08.347Z,24.30
2018-08-20T12:00:37.278Z,24.00
2018-08-20T12:03:07.181Z,23.90
2018-08-20T12:05:36.082Z,23.80
2018-08-20T12:08:05.013Z,23.70
2018-08-20T12:10:33.871Z,23.70
2018-08-20T12:13:02.750Z,23.70
2018-08-20T12:15:31.536Z,23.70
2018-08-20T12:18:00.522Z,23.70
2018-08-20T12:20:29.274Z,23.70
2018-08-20T12:22:58.036Z,23.70
2018-08-20T12:25:26.802Z,23.70
2018-08-20T12:27:55.605Z,23.70
2018-08-20T12:30:24.331Z,23.70
2018-08-20T12:32:55.212Z,23.70
2018-08-20T12:35:24.417Z,23.60
2018-08-20T12:37:53.332Z,23.70
2018-08-20T12:40:22.342Z,23.70
2018-08-20T12:42:51.161Z,23.70
2018-08-20T12:45:20.009Z,23.60
2018-08-20T12:47:48.917Z,23.60
2018-08-20T12:50:17.713Z,23.70
2018-08-20T12:52:46.658Z,23.70
2018-08-20T12:55:15.537Z,24.00
2018-08-20T12:57:44.284Z,24.30
2018-08-20T13:00:13.125Z,24.50
2018-08-20T13:02:42.036Z,24.80
2018-08-20T13:05:10.862Z,25.00
2018-08-20T13:07:39.627Z,25.30
2018-08-20T13:10:08.668Z,25.90
2018-08-20T13:12:37.478Z,26.10
2018-08-20T13:15:07.252Z,26.30
2018-08-20T13:17:36.143Z,26.40
2018-08-20T13:20:05.331Z,26.40
2018-08-20T13:22:34.142Z,26.20
2018-08-20T13:25:03.001Z,26.10
2018-08-20T13:27:31.974Z,26.10
2018-08-20T13:30:01.065Z,25.90
2018-08-20T13:32:29.966Z,25.70
2018-08-20T13:34:58.832Z,25.50
2018-08-20T13:37:27.682Z,25.30
2018-08-20T13:39:56.597Z,25.00
2018-08-20T13:42:25.413Z,25.10
2018-08-20T13:44:54.653Z,24.90
2018-08-20T13:47:23.440Z,24.90
2018-08-20T13:49:55.250Z,24.90
2018-08-20T13:52:23.886Z,24.90
2018-08-20T13:54:52.617Z,24.90
2018-08-20T13:57:21.482Z,25.10
2018-08-20T13:59:50.461Z,25.10
2018-08-20T14:02:19.225Z,25.10
2018-08-20T14:04:49.853Z,25.20
2018-08-20T14:07:18.644Z,25.40
2018-08-20T14:09:47.513Z,25.70
2018-08-20T14:12:16.283Z,26.10
2018-08-20T14:14:45.051Z,26.20
2018-08-20T14:17:13.965Z,26.30
2018-08-20T14:19:42.975Z,26.50
2018-08-20T14:22:11.754Z,26.90
2018-08-20T14:24:40.728Z,27.00
2018-08-20T14:27:09.479Z,27.00
2018-08-20T14:29:38.626Z,27.10
2018-08-20T14:32:07.650Z,27.00
2018-08-20T14:34:36.458Z,26.80
2018-08-20T14:37:11.847Z,26.60
2018-08-20T14:39:40.749Z,26.20
2018-08-20T14:42:09.813Z,26.10
2018-08-20T14:44:38.595Z,25.90
2018-08-20T14:47:07.401Z,25.90
2018-08-20T14:49:36.325Z,25.80
2018-08-20T14:52:05.091Z,25.50
2018-08-20T14:54:33.858Z,25.40
2018-08-20T14:57:03.300Z,25.20
2018-08-20T14:59:32.401Z,25.70
2018-08-20T15:02:01.499Z,26.20
2018-08-20T15:04:30.167Z,26.40
2018-08-20T15:07:04.174Z,26.80
2018-08-20T15:09:33.004Z,26.80
2018-08-20T15:12:01.783Z,26.60
2018-08-20T15:14:30.578Z,26.50
2018-08-20T15:17:00.254Z,26.40
2018-08-20T15:19:32.884Z,26.30
2018-08-20T15:22:06.017Z,26.10
2018-08-20T15:24:37.393Z,26.10
2018-08-20T15:27:08.284Z,26.10
2018-08-20T15:29:39.464Z,26.10
2018-08-20T15:32:10.931Z,25.90
2018-08-20T15:34:41.963Z,25.90
2018-08-20T15:37:13.926Z,25.80
